sensor_id;sensor_type;location;lat;lon;timestamp;temperature;humidity
26703;DHT22;14316;51.074;3.704;2024-03-02T00:00:20;6.50;99.90
26703;DHT22;14316;51.074;3.704;2024-03-02T00:02:51;6.50;99.90
26703;DHT22;14316;51.074;3.704;2024-03-02T00:05:21;6.60;99.90
26703;DHT22;14316;51.074;3.704;2024-03-02T00:07:59;6.70;99.90
26703;DHT22;14316;51.074;3.704;2024-03-02T00:10:29;6.80;99.90
26703;DHT22;14316;51.074;3.704;2024-03-02T00:13:00;6.80;99.90
26703;DHT22;14316;51.074;3.704;2024-03-02T00:17:56;6.70;99.90
26703;DHT22;14316;51.074;3.704;2024-03-02T00:20:22;6.60;99.90
26703;DHT22;14316;51.074;3.704;2024-03-02T00:22:51;6.70;99.90
26703;DHT22;14316;51.074;3.704;2024-03-02T00:25:17;6.70;99.90
26703;DHT22;14316;51.074;3.704;2024-03-02T00:27:47;6.60;99.90
26703;DHT22;14316;51.074;3.704;2024-03-02T00:33:08;6.60;99.90
26703;DHT22;14316;51.074;3.704;2024-03-02T00:35:33;6.40;99.90
26703;DHT22;14316;51.074;3.704;2024-03-02T00:38:07;6.50;99.90
26703;DHT22;14316;51.074;3.704;2024-03-02T00:40:33;6.50;99.90
26703;DHT22;14316;51.074;3.704;2024-03-02T00:42:59;6.30;99.90
26703;DHT22;14316;51.074;3.704;2024-03-02T00:45:25;6.20;99.90
26703;DHT22;14316;51.074;3.704;2024-03-02T00:47:52;6.30;99.90
26703;DHT22;14316;51.074;3.704;2024-03-02T00:50:18;6.30;99.90
26703;DHT22;14316;51.074;3.704;2024-03-02T00:52:45;6.40;99.90
26703;DHT22;14316;51.074;3.704;2024-03-02T00:55:14;6.30;99.90
26703;DHT22;14316;51.074;3.704;2024-03-02T00:57:40;6.40;99.90
26703;DHT22;14316;51.074;3.704;2024-03-02T01:00:06;6.30;99.90
26703;DHT22;14316;51.074;3.704;2024-03-02T01:02:36;6.40;99.90
26703;DHT22;14316;51.074;3.704;2024-03-02T01:05:02;6.50;99.90
26703;DHT22;14316;51.074;3.704;2024-03-02T01:07:27;6.40;99.90
26703;DHT22;14316;51.074;3.704;2024-03-02T01:09:53;6.30;99.90
26703;DHT22;14316;51.074;3.704;2024-03-02T01:12:19;6.30;99.90
26703;DHT22;14316;51.074;3.704;2024-03-02T01:14:45;6.20;99.90
26703;DHT22;14316;51.074;3.704;2024-03-02T01:17:11;6.20;99.90
26703;DHT22;14316;51.074;3.704;2024-03-02T01:19:37;6.30;99.90
26703;DHT22;14316;51.074;3.704;2024-03-02T01:22:04;6.20;99.90
26703;DHT22;14316;51.074;3.704;2024-03-02T01:24:30;6.20;99.90
26703;DHT22;14316;51.074;3.704;2024-03-02T01:26:56;6.30;99.90
26703;DHT22;14316;51.074;3.704;2024-03-02T01:29:22;6.20;99.90
26703;DHT22;14316;51.074;3.704;2024-03-02T01:31:48;6.10;99.90
26703;DHT22;14316;51.074;3.704;2024-03-02T01:34:14;6.20;99.90
26703;DHT22;14316;51.074;3.704;2024-03-02T01:36:39;6.30;99.90
26703;DHT22;14316;51.074;3.704;2024-03-02T01:39:05;6.20;99.90
26703;DHT22;14316;51.074;3.704;2024-03-02T01:41:34;6.10;99.90
26703;DHT22;14316;51.074;3.704;2024-03-02T01:44:00;6.20;99.90
26703;DHT22;14316;51.074;3.704;2024-03-02T01:46:26;6.10;99.90
26703;DHT22;14316;51.074;3.704;2024-03-02T01:48:52;6.10;99.90
26703;DHT22;14316;51.074;3.704;2024-03-02T01:51:18;6.20;99.90
26703;DHT22;14316;51.074;3.704;2024-03-02T01:53:44;6.10;99.90
26703;DHT22;14316;51.074;3.704;2024-03-02T01:56:10;6.10;99.90
26703;DHT22;14316;51.074;3.704;2024-03-02T01:58:37;6.10;99.90
26703;DHT22;14316;51.074;3.704;2024-03-02T02:01:03;6.00;99.90
26703;DHT22;14316;51.074;3.704;2024-03-02T02:03:29;6.00;99.90
26703;DHT22;14316;51.074;3.704;2024-03-02T02:05:55;6.00;99.90
26703;DHT22;14316;51.074;3.704;2024-03-02T02:08:21;6.10;99.90
26703;DHT22;14316;51.074;3.704;2024-03-02T02:10:50;6.10;99.90
26703;DHT22;14316;51.074;3.704;2024-03-02T02:13:16;6.00;99.90
26703;DHT22;14316;51.074;3.704;2024-03-02T02:15:42;5.90;99.90
26703;DHT22;14316;51.074;3.704;2024-03-02T02:18:08;5.90;99.90
26703;DHT22;14316;51.074;3.704;2024-03-02T02:20:34;5.90;99.90
26703;DHT22;14316;51.074;3.704;2024-03-02T02:23:01;6.00;99.90
26703;DHT22;14316;51.074;3.704;2024-03-02T02:25:29;6.10;99.90
26703;DHT22;14316;51.074;3.704;2024-03-02T02:27:55;6.20;99.90
26703;DHT22;14316;51.074;3.704;2024-03-02T02:30:29;6.20;99.90
26703;DHT22;14316;51.074;3.704;2024-03-02T02:32:56;6.30;99.90
26703;DHT22;14316;51.074;3.704;2024-03-02T02:35:22;6.20;99.90
26703;DHT22;14316;51.074;3.704;2024-03-02T02:37:49;6.30;99.90
26703;DHT22;14316;51.074;3.704;2024-03-02T02:40:16;6.20;99.90
26703;DHT22;14316;51.074;3.704;2024-03-02T02:42:44;6.20;99.90
26703;DHT22;14316;51.074;3.704;2024-03-02T02:45:10;6.30;99.90
26703;DHT22;14316;51.074;3.704;2024-03-02T02:47:38;6.30;99.90
26703;DHT22;14316;51.074;3.704;2024-03-02T02:50:06;6.20;99.90
26703;DHT22;14316;51.074;3.704;2024-03-02T02:52:33;6.20;99.90
26703;DHT22;14316;51.074;3.704;2024-03-02T02:55:05;6.40;99.90
26703;DHT22;14316;51.074;3.704;2024-03-02T02:57:32;6.40;99.90
26703;DHT22;14316;51.074;3.704;2024-03-02T03:00:03;6.20;99.90
26703;DHT22;14316;51.074;3.704;2024-03-02T03:02:31;6.30;99.90
26703;DHT22;14316;51.074;3.704;2024-03-02T03:04:57;6.40;99.90
26703;DHT22;14316;51.074;3.704;2024-03-02T03:07:23;6.20;99.90
26703;DHT22;14316;51.074;3.704;2024-03-02T03:09:49;6.20;99.90
26703;DHT22;14316;51.074;3.704;2024-03-02T03:12:15;6.20;99.90
26703;DHT22;14316;51.074;3.704;2024-03-02T03:14:41;6.20;99.90
26703;DHT22;14316;51.074;3.704;2024-03-02T03:17:07;6.30;99.90
26703;DHT22;14316;51.074;3.704;2024-03-02T03:19:33;6.20;99.90
26703;DHT22;14316;51.074;3.704;2024-03-02T03:21:59;6.20;99.90
26703;DHT22;14316;51.074;3.704;2024-03-02T03:24:25;6.20;99.90
26703;DHT22;14316;51.074;3.704;2024-03-02T03:26:51;6.20;99.90
26703;DHT22;14316;51.074;3.704;2024-03-02T03:29:17;6.20;99.90
26703;DHT22;14316;51.074;3.704;2024-03-02T03:31:43;6.30;99.90
26703;DHT22;14316;51.074;3.704;2024-03-02T03:34:09;6.20;99.90
26703;DHT22;14316;51.074;3.704;2024-03-02T03:36:35;6.30;99.90
26703;DHT22;14316;51.074;3.704;2024-03-02T03:39:00;6.20;99.90
26703;DHT22;14316;51.074;3.704;2024-03-02T03:41:28;6.20;99.90
26703;DHT22;14316;51.074;3.704;2024-03-02T03:43:54;6.40;99.90
26703;DHT22;14316;51.074;3.704;2024-03-02T03:46:21;6.40;99.90
26703;DHT22;14316;51.074;3.704;2024-03-02T03:48:47;6.30;99.90
26703;DHT22;14316;51.074;3.704;2024-03-02T03:51:12;6.30;99.90
26703;DHT22;14316;51.074;3.704;2024-03-02T03:53:38;6.40;99.90
26703;DHT22;14316;51.074;3.704;2024-03-02T03:56:04;6.20;99.90
26703;DHT22;14316;51.074;3.704;2024-03-02T03:58:30;6.20;99.90
26703;DHT22;14316;51.074;3.704;2024-03-02T04:00:56;6.30;99.90
26703;DHT22;14316;51.074;3.704;2024-03-02T04:03:22;6.30;99.90
26703;DHT22;14316;51.074;3.704;2024-03-02T04:05:48;6.20;99.90
26703;DHT22;14316;51.074;3.704;2024-03-02T04:08:14;6.10;99.90
26703;DHT22;14316;51.074;3.704;2024-03-02T04:10:40;6.10;99.90
26703;DHT22;14316;51.074;3.704;2024-03-02T04:13:07;6.10;99.90
26703;DHT22;14316;51.074;3.704;2024-03-02T04:15:33;6.00;99.90
26703;DHT22;14316;51.074;3.704;2024-03-02T04:17:59;6.00;99.90
26703;DHT22;14316;51.074;3.704;2024-03-02T04:20:25;6.00;99.90
26703;DHT22;14316;51.074;3.704;2024-03-02T04:22:51;5.90;99.90
26703;DHT22;14316;51.074;3.704;2024-03-02T04:25:17;5.90;99.90
26703;DHT22;14316;51.074;3.704;2024-03-02T04:27:43;6.00;99.90
26703;DHT22;14316;51.074;3.704;2024-03-02T04:30:09;6.10;99.90
26703;DHT22;14316;51.074;3.704;2024-03-02T04:32:34;6.20;99.90
26703;DHT22;14316;51.074;3.704;2024-03-02T04:35:02;6.30;99.90
26703;DHT22;14316;51.074;3.704;2024-03-02T04:37:28;6.40;99.90
26703;DHT22;14316;51.074;3.704;2024-03-02T04:39:53;6.40;99.90
26703;DHT22;14316;51.074;3.704;2024-03-02T04:42:19;6.50;99.90
26703;DHT22;14316;51.074;3.704;2024-03-02T04:44:45;6.40;99.90
26703;DHT22;14316;51.074;3.704;2024-03-02T04:47:11;6.50;99.90
26703;DHT22;14316;51.074;3.704;2024-03-02T04:49:38;6.50;99.90
26703;DHT22;14316;51.074;3.704;2024-03-02T04:52:04;6.60;99.90
26703;DHT22;14316;51.074;3.704;2024-03-02T04:54:30;6.70;99.90
26703;DHT22;14316;51.074;3.704;2024-03-02T04:56:56;6.60;99.90
26703;DHT22;14316;51.074;3.704;2024-03-02T04:59:22;6.50;99.90
26703;DHT22;14316;51.074;3.704;2024-03-02T05:01:48;6.50;99.90
26703;DHT22;14316;51.074;3.704;2024-03-02T05:04:13;6.40;99.90
26703;DHT22;14316;51.074;3.704;2024-03-02T05:06:40;6.40;99.90
26703;DHT22;14316;51.074;3.704;2024-03-02T05:09:06;6.30;99.90
26703;DHT22;14316;51.074;3.704;2024-03-02T05:11:32;6.10;99.90
26703;DHT22;14316;51.074;3.704;2024-03-02T05:14:05;6.30;99.90
26703;DHT22;14316;51.074;3.704;2024-03-02T05:16:35;6.30;99.90
26703;DHT22;14316;51.074;3.704;2024-03-02T05:19:01;6.20;99.90
26703;DHT22;14316;51.074;3.704;2024-03-02T05:21:27;6.30;99.90
26703;DHT22;14316;51.074;3.704;2024-03-02T05:23:53;6.20;99.90
26703;DHT22;14316;51.074;3.704;2024-03-02T05:26:19;6.30;99.90
26703;DHT22;14316;51.074;3.704;2024-03-02T05:28:44;6.20;99.90
26703;DHT22;14316;51.074;3.704;2024-03-02T05:31:11;6.20;99.90
26703;DHT22;14316;51.074;3.704;2024-03-02T05:33:40;6.20;99.90
26703;DHT22;14316;51.074;3.704;2024-03-02T05:36:06;6.20;99.90
26703;DHT22;14316;51.074;3.704;2024-03-02T05:38:34;6.30;99.90
26703;DHT22;14316;51.074;3.704;2024-03-02T05:41:01;6.30;99.90
26703;DHT22;14316;51.074;3.704;2024-03-02T05:43:27;6.10;99.90
26703;DHT22;14316;51.074;3.704;2024-03-02T05:45:53;6.10;99.90
26703;DHT22;14316;51.074;3.704;2024-03-02T05:48:19;6.10;99.90
26703;DHT22;14316;51.074;3.704;2024-03-02T05:50:44;6.10;99.90
26703;DHT22;14316;51.074;3.704;2024-03-02T05:53:10;6.00;99.90
26703;DHT22;14316;51.074;3.704;2024-03-02T05:55:36;6.10;99.90
26703;DHT22;14316;51.074;3.704;2024-03-02T05:58:02;6.10;99.90
26703;DHT22;14316;51.074;3.704;2024-03-02T06:00:31;6.00;99.90
26703;DHT22;14316;51.074;3.704;2024-03-02T06:02:57;6.00;99.90
26703;DHT22;14316;51.074;3.704;2024-03-02T06:05:23;6.10;99.90
26703;DHT22;14316;51.074;3.704;2024-03-02T06:07:49;6.20;99.90
26703;DHT22;14316;51.074;3.704;2024-03-02T06:10:14;6.20;99.90
26703;DHT22;14316;51.074;3.704;2024-03-02T06:12:40;6.20;99.90
26703;DHT22;14316;51.074;3.704;2024-03-02T06:15:06;6.10;99.90
26703;DHT22;14316;51.074;3.704;2024-03-02T06:17:34;6.20;99.90
26703;DHT22;14316;51.074;3.704;2024-03-02T06:20:00;6.10;99.90
26703;DHT22;14316;51.074;3.704;2024-03-02T06:22:27;6.10;99.90
26703;DHT22;14316;51.074;3.704;2024-03-02T06:24:53;6.20;99.90
26703;DHT22;14316;51.074;3.704;2024-03-02T06:27:18;6.10;99.90
26703;DHT22;14316;51.074;3.704;2024-03-02T06:29:44;6.00;99.90
26703;DHT22;14316;51.074;3.704;2024-03-02T06:32:10;6.00;99.90
26703;DHT22;14316;51.074;3.704;2024-03-02T06:34:36;6.00;99.90
26703;DHT22;14316;51.074;3.704;2024-03-02T06:37:02;6.00;99.90
26703;DHT22;14316;51.074;3.704;2024-03-02T06:39:28;5.90;99.90
26703;DHT22;14316;51.074;3.704;2024-03-02T06:41:54;5.90;99.90
26703;DHT22;14316;51.074;3.704;2024-03-02T06:44:20;5.90;99.90
26703;DHT22;14316;51.074;3.704;2024-03-02T06:46:46;5.90;99.90
26703;DHT22;14316;51.074;3.704;2024-03-02T06:49:12;5.90;99.90
26703;DHT22;14316;51.074;3.704;2024-03-02T06:51:38;5.90;99.90
26703;DHT22;14316;51.074;3.704;2024-03-02T06:54:03;5.90;99.90
26703;DHT22;14316;51.074;3.704;2024-03-02T06:56:29;5.80;99.90
26703;DHT22;14316;51.074;3.704;2024-03-02T06:58:56;5.80;99.90
26703;DHT22;14316;51.074;3.704;2024-03-02T07:01:22;5.80;99.90
26703;DHT22;14316;51.074;3.704;2024-03-02T07:03:47;5.80;99.90
26703;DHT22;14316;51.074;3.704;2024-03-02T07:06:14;5.80;99.90
26703;DHT22;14316;51.074;3.704;2024-03-02T07:08:40;5.90;99.90
26703;DHT22;14316;51.074;3.704;2024-03-02T07:11:05;5.90;99.90
26703;DHT22;14316;51.074;3.704;2024-03-02T07:13:31;6.00;99.90
26703;DHT22;14316;51.074;3.704;2024-03-02T07:15:57;6.20;99.90
26703;DHT22;14316;51.074;3.704;2024-03-02T07:18:25;6.20;99.90
26703;DHT22;14316;51.074;3.704;2024-03-02T07:20:51;6.30;99.90
26703;DHT22;14316;51.074;3.704;2024-03-02T07:23:16;6.40;99.90
26703;DHT22;14316;51.074;3.704;2024-03-02T07:25:42;6.50;99.90
26703;DHT22;14316;51.074;3.704;2024-03-02T07:28:08;6.60;99.90
26703;DHT22;14316;51.074;3.704;2024-03-02T07:30:33;6.70;99.90
26703;DHT22;14316;51.074;3.704;2024-03-02T07:32:59;6.80;99.90
26703;DHT22;14316;51.074;3.704;2024-03-02T07:35:26;6.80;99.90
26703;DHT22;14316;51.074;3.704;2024-03-02T07:37:57;6.90;99.90
26703;DHT22;14316;51.074;3.704;2024-03-02T07:40:24;7.00;99.90
26703;DHT22;14316;51.074;3.704;2024-03-02T07:42:49;7.20;99.90
26703;DHT22;14316;51.074;3.704;2024-03-02T07:45:15;7.40;99.90
26703;DHT22;14316;51.074;3.704;2024-03-02T07:47:41;7.40;99.90
26703;DHT22;14316;51.074;3.704;2024-03-02T07:50:08;7.40;99.90
26703;DHT22;14316;51.074;3.704;2024-03-02T07:52:34;7.50;99.90
26703;DHT22;14316;51.074;3.704;2024-03-02T07:55:00;7.60;99.90
26703;DHT22;14316;51.074;3.704;2024-03-02T07:57:26;7.70;99.90
26703;DHT22;14316;51.074;3.704;2024-03-02T07:59:52;7.70;99.90
26703;DHT22;14316;51.074;3.704;2024-03-02T08:02:18;7.90;99.90
26703;DHT22;14316;51.074;3.704;2024-03-02T08:04:43;8.00;99.90
26703;DHT22;14316;51.074;3.704;2024-03-02T08:07:11;8.20;99.90
26703;DHT22;14316;51.074;3.704;2024-03-02T08:09:37;8.20;99.90
26703;DHT22;14316;51.074;3.704;2024-03-02T08:12:03;8.20;99.90
26703;DHT22;14316;51.074;3.704;2024-03-02T08:14:29;8.40;99.90
26703;DHT22;14316;51.074;3.704;2024-03-02T08:16:55;8.50;99.90
26703;DHT22;14316;51.074;3.704;2024-03-02T08:19:22;8.70;99.90
26703;DHT22;14316;51.074;3.704;2024-03-02T08:21:48;8.80;99.90
26703;DHT22;14316;51.074;3.704;2024-03-02T08:24:14;8.90;99.90
26703;DHT22;14316;51.074;3.704;2024-03-02T08:26:40;8.90;99.90
26703;DHT22;14316;51.074;3.704;2024-03-02T08:29:06;9.10;99.90
26703;DHT22;14316;51.074;3.704;2024-03-02T08:31:32;9.10;99.90
26703;DHT22;14316;51.074;3.704;2024-03-02T08:33:57;8.80;99.90
26703;DHT22;14316;51.074;3.704;2024-03-02T08:36:24;8.90;99.90
26703;DHT22;14316;51.074;3.704;2024-03-02T08:38:50;9.30;99.90
26703;DHT22;14316;51.074;3.704;2024-03-02T08:41:17;9.40;99.90
26703;DHT22;14316;51.074;3.704;2024-03-02T08:43:43;9.80;99.90
26703;DHT22;14316;51.074;3.704;2024-03-02T08:46:09;9.80;99.90
26703;DHT22;14316;51.074;3.704;2024-03-02T08:48:35;10.00;99.90
26703;DHT22;14316;51.074;3.704;2024-03-02T08:51:01;10.10;99.90
26703;DHT22;14316;51.074;3.704;2024-03-02T08:53:28;10.00;99.90
26703;DHT22;14316;51.074;3.704;2024-03-02T08:55:54;9.80;99.90
26703;DHT22;14316;51.074;3.704;2024-03-02T08:58:20;9.60;99.90
26703;DHT22;14316;51.074;3.704;2024-03-02T09:00:47;9.60;99.90
26703;DHT22;14316;51.074;3.704;2024-03-02T09:03:13;9.60;99.90
26703;DHT22;14316;51.074;3.704;2024-03-02T09:05:39;9.70;99.90
26703;DHT22;14316;51.074;3.704;2024-03-02T09:08:05;9.80;99.90
26703;DHT22;14316;51.074;3.704;2024-03-02T09:10:31;9.70;99.90
26703;DHT22;14316;51.074;3.704;2024-03-02T09:12:57;10.00;99.90
26703;DHT22;14316;51.074;3.704;2024-03-02T09:15:23;10.20;99.90
26703;DHT22;14316;51.074;3.704;2024-03-02T09:17:49;10.40;99.90
26703;DHT22;14316;51.074;3.704;2024-03-02T09:20:15;10.50;99.90
26703;DHT22;14316;51.074;3.704;2024-03-02T09:22:42;10.80;99.90
26703;DHT22;14316;51.074;3.704;2024-03-02T09:25:08;10.70;99.90
26703;DHT22;14316;51.074;3.704;2024-03-02T09:27:38;10.80;99.90
26703;DHT22;14316;51.074;3.704;2024-03-02T09:30:07;10.50;99.90
26703;DHT22;14316;51.074;3.704;2024-03-02T09:32:33;10.40;99.90
26703;DHT22;14316;51.074;3.704;2024-03-02T09:34:59;10.70;99.90
26703;DHT22;14316;51.074;3.704;2024-03-02T09:37:26;10.70;99.90
26703;DHT22;14316;51.074;3.704;2024-03-02T09:39:52;10.80;99.90
26703;DHT22;14316;51.074;3.704;2024-03-02T09:42:18;11.20;99.90
26703;DHT22;14316;51.074;3.704;2024-03-02T09:44:45;11.70;99.90
26703;DHT22;14316;51.074;3.704;2024-03-02T09:47:11;12.00;99.90
26703;DHT22;14316;51.074;3.704;2024-03-02T09:49:37;12.50;99.90
26703;DHT22;14316;51.074;3.704;2024-03-02T09:52:03;13.00;99.90
26703;DHT22;14316;51.074;3.704;2024-03-02T09:54:30;13.20;99.90
26703;DHT22;14316;51.074;3.704;2024-03-02T09:56:56;13.30;99.90
26703;DHT22;14316;51.074;3.704;2024-03-02T09:59:22;13.40;99.90
26703;DHT22;14316;51.074;3.704;2024-03-02T10:01:58;13.50;99.90
26703;DHT22;14316;51.074;3.704;2024-03-02T10:04:26;13.30;99.90
26703;DHT22;14316;51.074;3.704;2024-03-02T10:07:15;13.30;99.90
26703;DHT22;14316;51.074;3.704;2024-03-02T10:09:43;12.90;99.90
26703;DHT22;14316;51.074;3.704;2024-03-02T10:12:12;13.10;99.90
26703;DHT22;14316;51.074;3.704;2024-03-02T10:14:38;12.80;99.90
26703;DHT22;14316;51.074;3.704;2024-03-02T10:17:06;12.70;99.90
26703;DHT22;14316;51.074;3.704;2024-03-02T10:19:32;13.10;99.90
26703;DHT22;14316;51.074;3.704;2024-03-02T10:22:01;13.40;99.90
26703;DHT22;14316;51.074;3.704;2024-03-02T10:24:44;13.60;99.90
26703;DHT22;14316;51.074;3.704;2024-03-02T10:27:16;14.00;99.90
26703;DHT22;14316;51.074;3.704;2024-03-02T10:29:42;14.10;99.90
26703;DHT22;14316;51.074;3.704;2024-03-02T10:32:09;13.90;99.90
26703;DHT22;14316;51.074;3.704;2024-03-02T10:34:37;13.90;99.90
26703;DHT22;14316;51.074;3.704;2024-03-02T10:37:04;13.30;99.90
26703;DHT22;14316;51.074;3.704;2024-03-02T10:39:30;12.80;99.90
26703;DHT22;14316;51.074;3.704;2024-03-02T10:41:57;12.60;99.90
26703;DHT22;14316;51.074;3.704;2024-03-02T10:44:25;12.70;99.90
26703;DHT22;14316;51.074;3.704;2024-03-02T10:46:52;12.80;99.90
26703;DHT22;14316;51.074;3.704;2024-03-02T10:49:20;12.50;99.90
26703;DHT22;14316;51.074;3.704;2024-03-02T10:51:48;12.20;99.90
26703;DHT22;14316;51.074;3.704;2024-03-02T10:54:14;12.00;99.90
26703;DHT22;14316;51.074;3.704;2024-03-02T10:56:41;11.90;99.90
26703;DHT22;14316;51.074;3.704;2024-03-02T10:59:29;11.70;99.90
26703;DHT22;14316;51.074;3.704;2024-03-02T11:01:59;11.70;99.90
26703;DHT22;14316;51.074;3.704;2024-03-02T11:04:27;12.00;99.90
26703;DHT22;14316;51.074;3.704;2024-03-02T11:07:07;12.60;99.90
26703;DHT22;14316;51.074;3.704;2024-03-02T11:09:34;13.50;99.90
26703;DHT22;14316;51.074;3.704;2024-03-02T11:12:12;14.00;99.90
26703;DHT22;14316;51.074;3.704;2024-03-02T11:14:41;14.60;99.90
26703;DHT22;14316;51.074;3.704;2024-03-02T11:17:14;14.80;99.90
26703;DHT22;14316;51.074;3.704;2024-03-02T11:19:44;14.30;99.90
26703;DHT22;14316;51.074;3.704;2024-03-02T11:22:11;14.10;99.90
26703;DHT22;14316;51.074;3.704;2024-03-02T11:24:38;14.00;99.90
26703;DHT22;14316;51.074;3.704;2024-03-02T11:27:07;13.70;99.90
26703;DHT22;14316;51.074;3.704;2024-03-02T11:32:13;13.80;99.90
26703;DHT22;14316;51.074;3.704;2024-03-02T11:34:44;13.60;99.90
26703;DHT22;14316;51.074;3.704;2024-03-02T11:37:16;13.40;99.90
26703;DHT22;14316;51.074;3.704;2024-03-02T11:39:46;13.50;99.90
26703;DHT22;14316;51.074;3.704;2024-03-02T11:42:12;13.80;99.90
26703;DHT22;14316;51.074;3.704;2024-03-02T11:44:46;14.00;99.90
26703;DHT22;14316;51.074;3.704;2024-03-02T11:47:14;13.80;99.90
26703;DHT22;14316;51.074;3.704;2024-03-02T11:49:50;14.10;99.90
26703;DHT22;14316;51.074;3.704;2024-03-02T11:52:17;14.10;99.90
26703;DHT22;14316;51.074;3.704;2024-03-02T11:54:45;13.90;99.90
26703;DHT22;14316;51.074;3.704;2024-03-02T11:57:18;13.80;99.90
26703;DHT22;14316;51.074;3.704;2024-03-02T11:59:45;13.80;99.90
26703;DHT22;14316;51.074;3.704;2024-03-02T12:02:20;13.70;99.90
26703;DHT22;14316;51.074;3.704;2024-03-02T12:04:48;13.20;99.90
26703;DHT22;14316;51.074;3.704;2024-03-02T12:07:21;13.00;99.90
26703;DHT22;14316;51.074;3.704;2024-03-02T12:09:48;13.00;99.90
26703;DHT22;14316;51.074;3.704;2024-03-02T12:12:14;13.10;99.90
26703;DHT22;14316;51.074;3.704;2024-03-02T12:14:51;12.70;99.90
26703;DHT22;14316;51.074;3.704;2024-03-02T12:17:18;12.40;99.90
26703;DHT22;14316;51.074;3.704;2024-03-02T12:19:45;12.30;99.90
26703;DHT22;14316;51.074;3.704;2024-03-02T12:22:11;12.40;99.90
26703;DHT22;14316;51.074;3.704;2024-03-02T12:24:37;12.30;99.90
26703;DHT22;14316;51.074;3.704;2024-03-02T12:27:05;12.10;99.90
26703;DHT22;14316;51.074;3.704;2024-03-02T12:29:32;11.90;99.90
26703;DHT22;14316;51.074;3.704;2024-03-02T12:31:59;12.00;99.90
26703;DHT22;14316;51.074;3.704;2024-03-02T12:34:27;12.20;99.90
26703;DHT22;14316;51.074;3.704;2024-03-02T12:36:53;12.20;99.90
26703;DHT22;14316;51.074;3.704;2024-03-02T12:39:19;12.20;99.90
26703;DHT22;14316;51.074;3.704;2024-03-02T12:41:46;12.10;99.90
26703;DHT22;14316;51.074;3.704;2024-03-02T12:44:12;12.00;99.90
26703;DHT22;14316;51.074;3.704;2024-03-02T12:46:38;11.80;99.90
26703;DHT22;14316;51.074;3.704;2024-03-02T12:49:09;11.80;99.90
26703;DHT22;14316;51.074;3.704;2024-03-02T12:51:37;11.70;99.90
26703;DHT22;14316;51.074;3.704;2024-03-02T12:54:06;11.50;99.90
26703;DHT22;14316;51.074;3.704;2024-03-02T12:56:32;11.40;99.90
26703;DHT22;14316;51.074;3.704;2024-03-02T12:58:59;11.50;99.90
26703;DHT22;14316;51.074;3.704;2024-03-02T13:01:25;11.40;99.90
26703;DHT22;14316;51.074;3.704;2024-03-02T13:03:53;11.30;99.90
26703;DHT22;14316;51.074;3.704;2024-03-02T13:06:20;11.40;99.90
26703;DHT22;14316;51.074;3.704;2024-03-02T13:08:46;11.30;99.90
26703;DHT22;14316;51.074;3.704;2024-03-02T13:11:13;11.10;99.90
26703;DHT22;14316;51.074;3.704;2024-03-02T13:13:40;11.00;99.90
26703;DHT22;14316;51.074;3.704;2024-03-02T13:16:09;11.00;99.90
26703;DHT22;14316;51.074;3.704;2024-03-02T13:18:36;11.10;99.90
26703;DHT22;14316;51.074;3.704;2024-03-02T13:21:02;11.10;99.90
26703;DHT22;14316;51.074;3.704;2024-03-02T13:23:29;11.10;99.90
26703;DHT22;14316;51.074;3.704;2024-03-02T13:26:00;11.20;99.90
26703;DHT22;14316;51.074;3.704;2024-03-02T13:28:26;11.10;99.90
26703;DHT22;14316;51.074;3.704;2024-03-02T13:30:52;11.00;99.90
26703;DHT22;14316;51.074;3.704;2024-03-02T13:33:18;11.00;99.90
26703;DHT22;14316;51.074;3.704;2024-03-02T13:35:51;11.00;99.90
26703;DHT22;14316;51.074;3.704;2024-03-02T13:38:20;11.20;99.90
26703;DHT22;14316;51.074;3.704;2024-03-02T13:40:48;11.20;99.90
26703;DHT22;14316;51.074;3.704;2024-03-02T13:43:17;11.20;99.90
26703;DHT22;14316;51.074;3.704;2024-03-02T13:45:44;11.20;99.90
26703;DHT22;14316;51.074;3.704;2024-03-02T13:48:10;11.20;99.90
26703;DHT22;14316;51.074;3.704;2024-03-02T13:50:36;11.20;99.90
26703;DHT22;14316;51.074;3.704;2024-03-02T13:53:02;11.30;99.90
26703;DHT22;14316;51.074;3.704;2024-03-02T13:55:28;11.40;99.90
26703;DHT22;14316;51.074;3.704;2024-03-02T13:57:55;11.40;99.90
26703;DHT22;14316;51.074;3.704;2024-03-02T14:00:20;11.40;99.90
26703;DHT22;14316;51.074;3.704;2024-03-02T14:02:46;11.30;99.90
26703;DHT22;14316;51.074;3.704;2024-03-02T14:05:15;11.40;99.90
26703;DHT22;14316;51.074;3.704;2024-03-02T14:07:42;11.50;99.90
26703;DHT22;14316;51.074;3.704;2024-03-02T14:10:08;11.60;99.90
26703;DHT22;14316;51.074;3.704;2024-03-02T14:12:34;11.60;99.90
26703;DHT22;14316;51.074;3.704;2024-03-02T14:15:00;11.50;99.90
26703;DHT22;14316;51.074;3.704;2024-03-02T14:17:28;11.60;99.90
26703;DHT22;14316;51.074;3.704;2024-03-02T14:19:54;11.70;99.90
26703;DHT22;14316;51.074;3.704;2024-03-02T14:22:20;11.90;99.90
26703;DHT22;14316;51.074;3.704;2024-03-02T14:24:46;12.10;99.90
26703;DHT22;14316;51.074;3.704;2024-03-02T14:27:13;12.10;99.90
26703;DHT22;14316;51.074;3.704;2024-03-02T14:29:40;11.90;99.90
26703;DHT22;14316;51.074;3.704;2024-03-02T14:32:06;11.80;99.90
26703;DHT22;14316;51.074;3.704;2024-03-02T14:34:32;11.50;99.90
26703;DHT22;14316;51.074;3.704;2024-03-02T14:36:58;11.50;99.90
26703;DHT22;14316;51.074;3.704;2024-03-02T14:39:25;11.60;99.90
26703;DHT22;14316;51.074;3.704;2024-03-02T14:41:51;11.60;99.90
26703;DHT22;14316;51.074;3.704;2024-03-02T14:44:17;11.70;99.90
26703;DHT22;14316;51.074;3.704;2024-03-02T14:46:46;11.80;99.90
26703;DHT22;14316;51.074;3.704;2024-03-02T14:49:12;11.70;99.90
26703;DHT22;14316;51.074;3.704;2024-03-02T14:51:38;11.50;99.90
26703;DHT22;14316;51.074;3.704;2024-03-02T14:54:04;11.50;99.90
26703;DHT22;14316;51.074;3.704;2024-03-02T14:56:30;11.50;99.90
26703;DHT22;14316;51.074;3.704;2024-03-02T14:58:56;11.40;99.90
26703;DHT22;14316;51.074;3.704;2024-03-02T15:01:22;11.50;99.90
26703;DHT22;14316;51.074;3.704;2024-03-02T15:03:51;11.60;99.90
26703;DHT22;14316;51.074;3.704;2024-03-02T15:06:17;11.60;99.90
26703;DHT22;14316;51.074;3.704;2024-03-02T15:08:44;11.80;99.90
26703;DHT22;14316;51.074;3.704;2024-03-02T15:11:12;11.90;99.90
26703;DHT22;14316;51.074;3.704;2024-03-02T15:13:38;11.90;99.90
26703;DHT22;14316;51.074;3.704;2024-03-02T15:16:04;11.80;99.90
26703;DHT22;14316;51.074;3.704;2024-03-02T15:18:30;11.80;99.90
26703;DHT22;14316;51.074;3.704;2024-03-02T15:20:56;11.90;99.90
26703;DHT22;14316;51.074;3.704;2024-03-02T15:23:22;11.90;99.90
26703;DHT22;14316;51.074;3.704;2024-03-02T15:25:49;11.90;99.90
26703;DHT22;14316;51.074;3.704;2024-03-02T15:28:15;12.00;99.90
26703;DHT22;14316;51.074;3.704;2024-03-02T15:30:41;12.00;99.90
26703;DHT22;14316;51.074;3.704;2024-03-02T15:33:07;12.00;99.90
26703;DHT22;14316;51.074;3.704;2024-03-02T15:35:32;12.10;99.90
26703;DHT22;14316;51.074;3.704;2024-03-02T15:37:58;12.30;99.90
26703;DHT22;14316;51.074;3.704;2024-03-02T15:40:24;12.40;99.90
26703;DHT22;14316;51.074;3.704;2024-03-02T15:42:50;12.40;99.90
26703;DHT22;14316;51.074;3.704;2024-03-02T15:45:16;12.50;99.90